Time;durP1;ratioP1;P1;durP2;ratioP2;P2;SDS_P1;SDS_P2;PMS_P1;PMS_P2;Temp;Humidity;BMP_temperature;BMP_pressure;BME280_temperature;BME280_humidity;BME280_pressure;Samples;Min_cycle;Max_cycle;Signal;HPM_P1;HPM_P2
2023/08/26 00:02:01;;;;;;;6.47;3.67;;;17.50;67.10;;;;;;5069811;28;20186;-72
2023/08/26 00:04:28;;;;;;;5.73;2.70;;;17.40;67.70;;;;;;5068208;28;20197;-68
2023/08/26 00:06:55;;;;;;;10.30;2.73;;;17.30;69.00;;;;;;5069191;28;20550;-73
2023/08/26 00:09:23;;;;;;;5.57;3.00;;;17.30;69.00;;;;;;5072376;28;20649;-66
2023/08/26 00:11:50;;;;;;;8.37;3.00;;;17.40;69.50;;;;;;5069408;28;20183;-67
2023/08/26 00:14:17;;;;;;;7.13;2.50;;;17.60;68.70;;;;;;5070718;28;20210;-70
2023/08/26 00:16:45;;;;;;;5.63;2.70;;;17.80;68.90;;;;;;5067575;28;20260;-71
2023/08/26 00:19:12;;;;;;;11.43;2.93;;;18.00;68.30;;;;;;5069274;28;20190;-69
2023/08/26 00:21:57;;;;;;;8.20;2.40;;;18.10;67.90;;;;;;5069855;28;20273;-74
2023/08/26 00:24:28;;;;;;;8.00;2.37;;;18.40;68.20;;;;;;5070984;28;20194;-69
2023/08/26 00:26:58;;;;;;;8.60;2.10;;;18.50;67.00;;;;;;5074874;28;20179;-75
2023/08/26 00:29:28;;;;;;;5.17;2.13;;;18.30;67.80;;;;;;5064957;28;20295;-75
2023/08/26 00:31:55;;;;;;;5.17;2.07;;;18.30;68.10;;;;;;5074042;28;20587;-69
2023/08/26 00:34:23;;;;;;;5.67;2.23;;;18.60;69.00;;;;;;5067892;28;20223;-71
2023/08/26 00:36:50;;;;;;;4.57;2.70;;;19.10;66.30;;;;;;5072634;28;20187;-69
2023/08/26 00:39:17;;;;;;;11.87;2.63;;;19.10;66.40;;;;;;5072850;28;20870;-72
2023/08/26 00:41:45;;;;;;;7.50;2.17;;;18.90;67.50;;;;;;5073897;28;20679;-69
2023/08/26 00:44:12;;;;;;;8.97;2.77;;;18.80;68.40;;;;;;5074692;28;20178;-69
2023/08/26 00:46:40;;;;;;;6.53;1.77;;;18.70;68.80;;;;;;5073810;28;20187;-70
2023/08/26 00:49:08;;;;;;;4.97;2.17;;;18.50;69.00;;;;;;5074417;28;20193;-68
2023/08/26 00:51:36;;;;;;;6.07;2.20;;;18.70;69.30;;;;;;5074049;28;20245;-70
2023/08/26 00:54:05;;;;;;;6.97;2.10;;;18.60;68.60;;;;;;5076134;28;20210;-71
2023/08/26 00:56:33;;;;;;;9.47;2.67;;;18.50;69.30;;;;;;5075652;28;20179;-70
2023/08/26 00:59:01;;;;;;;9.27;2.43;;;18.40;70.10;;;;;;5076710;28;20183;-73
2023/08/26 01:01:31;;;;;;;9.83;2.70;;;18.40;69.90;;;;;;5076986;28;20202;-72
2023/08/26 01:03:59;;;;;;;7.57;2.57;;;18.40;69.90;;;;;;5076157;28;20193;-69
2023/08/26 01:06:26;;;;;;;7.43;2.17;;;18.30;69.80;;;;;;5075982;28;20190;-73
2023/08/26 01:08:54;;;;;;;8.13;2.63;;;18.40;70.50;;;;;;5074505;28;20188;-73
2023/08/26 01:11:50;;;;;;;8.10;2.10;;;18.50;70.10;;;;;;5072667;28;20207;-71
2023/08/26 01:14:20;;;;;;;4.13;1.67;;;18.80;69.30;;;;;;5074800;28;20215;-73
2023/08/26 01:16:48;;;;;;;2.90;1.60;;;18.90;67.80;;;;;;5075455;28;20191;-73
2023/08/26 01:19:31;;;;;;;9.13;2.27;;;18.80;68.10;;;;;;5075659;28;20175;-72
2023/08/26 01:22:05;;;;;;;8.30;2.30;;;18.80;68.80;;;;;;5074318;28;20172;-71
2023/08/26 01:24:33;;;;;;;9.03;2.63;;;18.50;69.60;;;;;;5070455;28;20175;-74
2023/08/26 01:27:00;;;;;;;3.27;2.67;;;18.70;69.80;;;;;;5073360;28;20267;-74
2023/08/26 01:29:28;;;;;;;3.87;1.97;;;19.10;68.40;;;;;;5069661;28;20171;-73
2023/08/26 01:32:19;;;;;;;8.83;2.10;;;19.30;66.70;;;;;;5074571;28;20238;-74
2023/08/26 01:34:55;;;;;;;4.97;1.73;;;19.60;66.60;;;;;;5070872;28;20211;-75
2023/08/26 01:37:25;;;;;;;4.17;1.50;;;20.00;65.40;;;;;;5071485;28;20187;-74
2023/08/26 01:39:55;;;;;;;7.00;2.27;;;20.00;64.90;;;;;;5075346;28;20202;-71
2023/08/26 01:42:26;;;;;;;7.60;2.27;;;20.40;64.20;;;;;;5074160;28;20254;-72
2023/08/26 01:44:53;;;;;;;10.00;2.10;;;20.30;64.10;;;;;;5074362;28;20179;-72
2023/08/26 01:47:21;;;;;;;7.47;1.80;;;20.00;64.60;;;;;;5073923;28;20203;-74
2023/08/26 01:49:48;;;;;;;5.97;2.20;;;19.80;64.30;;;;;;5074021;28;20288;-72
2023/08/26 01:52:16;;;;;;;6.00;1.80;;;19.60;65.80;;;;;;5073753;28;20558;-71
2023/08/26 01:54:44;;;;;;;4.30;1.70;;;19.80;65.50;;;;;;5074045;28;20213;-68
2023/08/26 01:57:11;;;;;;;6.80;2.07;;;20.20;64.60;;;;;;5073172;28;20716;-69
2023/08/26 01:59:38;;;;;;;7.50;1.90;;;20.50;63.80;;;;;;5073268;28;20226;-73
2023/08/26 02:02:05;;;;;;;7.60;2.07;;;20.60;62.70;;;;;;5073067;28;20179;-72
2023/08/26 02:04:33;;;;;;;5.20;2.13;;;20.80;62.80;;;;;;5072684;28;20178;-71
2023/08/26 02:07:00;;;;;;;4.70;1.73;;;21.30;62.20;;;;;;5071670;28;20183;-72
2023/08/26 02:09:28;;;;;;;4.73;1.40;;;21.60;59.50;;;;;;5072978;28;20180;-71
2023/08/26 02:11:55;;;;;;;7.60;1.70;;;21.70;60.00;;;;;;5072787;28;20262;-74
2023/08/26 02:14:22;;;;;;;4.60;1.63;;;21.70;59.20;;;;;;5073586;28;20272;-72
2023/08/26 02:16:50;;;;;;;4.30;1.83;;;21.20;58.20;;;;;;5073652;28;20183;-71
2023/08/26 02:19:17;;;;;;;7.87;1.93;;;20.70;60.60;;;;;;5072935;28;20191;-69
2023/08/26 02:21:45;;;;;;;5.03;1.73;;;20.60;61.30;;;;;;5072363;28;20167;-72
2023/08/26 02:24:13;;;;;;;7.43;1.60;;;20.60;62.90;;;;;;5072765;28;21448;-72
2023/08/26 02:26:40;;;;;;;5.40;1.53;;;21.30;61.80;;;;;;5072580;28;20183;-71
2023/08/26 02:29:07;;;;;;;5.50;2.13;;;21.50;60.10;;;;;;5068987;28;20195;-71
2023/08/26 02:31:34;;;;;;;4.93;1.57;;;21.30;60.70;;;;;;5072393;28;20231;-73
2023/08/26 02:34:02;;;;;;;4.90;1.60;;;20.90;61.60;;;;;;5072004;28;20245;-71
2023/08/26 02:36:29;;;;;;;8.10;1.80;;;20.30;63.60;;;;;;5071629;28;20195;-72
2023/08/26 02:38:57;;;;;;;8.00;2.33;;;20.10;64.50;;;;;;5071823;28;20183;-72
2023/08/26 02:41:24;;;;;;;5.30;2.23;;;19.80;65.90;;;;;;5066043;28;20183;-73
2023/08/26 02:43:52;;;;;;;6.67;2.07;;;19.70;66.50;;;;;;5072133;28;20273;-74
2023/08/26 02:46:19;;;;;;;6.10;1.80;;;19.50;67.40;;;;;;5071913;28;20213;-70
2023/08/26 02:48:46;;;;;;;3.93;1.63;;;19.50;67.80;;;;;;5071840;28;20191;-72
2023/08/26 02:51:14;;;;;;;8.57;1.90;;;19.40;67.20;;;;;;5071985;28;20229;-70
2023/08/26 02:53:41;;;;;;;6.77;1.70;;;19.30;67.60;;;;;;5071964;28;20269;-71
2023/08/26 02:56:08;;;;;;;5.97;1.50;;;19.80;67.40;;;;;;5071802;28;20199;-74
2023/08/26 02:58:36;;;;;;;3.57;1.60;;;20.70;63.50;;;;;;5067038;28;20210;-70
2023/08/26 03:01:06;;;;;;;4.10;1.50;;;21.20;62.80;;;;;;5070290;28;20537;-72
2023/08/26 03:03:34;;;;;;;5.33;1.90;;;21.70;59.70;;;;;;5071679;28;20664;-69
2023/08/26 03:06:02;;;;;;;5.33;1.23;;;21.80;58.60;;;;;;5071487;28;20187;-72
2023/08/26 03:08:29;;;;;;;5.53;1.73;;;21.80;59.20;;;;;;5067934;28;20610;-72
2023/08/26 03:11:05;;;;;;;3.10;1.40;;;22.00;58.30;;;;;;5071607;28;20192;-69
2023/08/26 03:13:33;;;;;;;7.67;1.70;;;22.10;57.30;;;;;;5071371;28;20195;-70
2023/08/26 03:16:08;;;;;;;3.43;1.33;;;21.80;58.30;;;;;;5070751;28;20175;-70
2023/08/26 03:18:35;;;;;;;4.13;1.30;;;21.30;58.80;;;;;;5071960;28;20667;-69
2023/08/26 03:21:07;;;;;;;7.83;1.83;;;21.00;61.10;;;;;;5069690;28;20191;-67
2023/08/26 03:23:37;;;;;;;4.53;1.80;;;21.00;61.10;;;;;;5071502;28;20201;-72
2023/08/26 03:26:04;;;;;;;4.43;1.80;;;20.80;61.70;;;;;;5071423;28;20240;-69
2023/08/26 03:28:31;;;;;;;5.37;1.50;;;20.40;61.40;;;;;;5071715;28;20581;-72
2023/08/26 03:31:05;;;;;;;4.87;1.50;;;20.30;62.30;;;;;;5070575;28;20550;-69
2023/08/26 03:33:34;;;;;;;4.43;1.60;;;20.10;62.80;;;;;;5071833;28;20202;-69
2023/08/26 03:36:05;;;;;;;4.77;1.70;;;19.90;64.10;;;;;;5069362;28;20186;-70
2023/08/26 03:38:35;;;;;;;5.40;1.57;;;20.00;63.30;;;;;;5067373;28;20585;-71
2023/08/26 03:41:07;;;;;;;6.00;1.60;;;20.10;63.80;;;;;;5070225;28;20210;-70
2023/08/26 03:43:34;;;;;;;3.40;1.50;;;20.40;61.70;;;;;;5070880;28;20179;-69
2023/08/26 03:46:04;;;;;;;3.70;1.50;;;20.40;60.90;;;;;;5070127;28;20542;-72
2023/08/26 03:48:31;;;;;;;4.40;1.60;;;21.00;59.30;;;;;;5070015;28;20236;-71
2023/08/26 03:51:00;;;;;;;6.27;1.53;;;21.20;59.60;;;;;;5070785;28;20187;-68
2023/08/26 03:53:29;;;;;;;5.07;1.50;;;21.90;57.60;;;;;;5071185;28;20175;-67
2023/08/26 03:55:57;;;;;;;4.63;1.50;;;21.70;57.30;;;;;;5070594;28;20582;-72
2023/08/26 03:58:26;;;;;;;4.00;1.57;;;21.60;58.30;;;;;;5069132;28;20652;-71
2023/08/26 04:01:01;;;;;;;5.33;1.30;;;21.60;58.20;;;;;;5070518;28;20171;-69
2023/08/26 04:03:28;;;;;;;6.70;1.60;;;21.40;59.20;;;;;;5070885;28;20186;-70
2023/08/26 04:06:00;;;;;;;7.13;1.40;;;22.30;56.90;;;;;;5070626;28;20214;-70
2023/08/26 04:08:28;;;;;;;7.00;1.80;;;22.40;56.20;;;;;;5071154;28;20264;-68
2023/08/26 04:10:59;;;;;;;4.80;1.60;;;22.40;56.60;;;;;;5070786;28;20177;-72
2023/08/26 04:13:28;;;;;;;5.37;1.50;;;21.80;57.40;;;;;;5066378;28;20176;-71
2023/08/26 04:15:56;;;;;;;2.97;1.20;;;21.20;58.30;;;;;;5070514;28;20703;-71
2023/08/26 04:18:24;;;;;;;5.70;1.43;;;21.00;60.50;;;;;;5070645;28;20207;-69
2023/08/26 04:20:55;;;;;;;4.43;1.40;;;21.00;60.10;;;;;;5069626;28;20231;-71
2023/08/26 04:23:22;;;;;;;7.83;1.47;;;20.60;61.20;;;;;;5070587;28;20207;-74
2023/08/26 04:25:52;;;;;;;8.17;1.40;;;20.70;60.70;;;;;;5070245;28;20224;-70
2023/08/26 04:28:19;;;;;;;5.80;1.70;;;20.70;60.80;;;;;;5070367;28;20191;-67
2023/08/26 04:30:46;;;;;;;5.07;1.50;;;20.50;61.10;;;;;;5067286;28;20637;-73
2023/08/26 04:33:14;;;;;;;5.13;1.40;;;20.20;61.80;;;;;;5070230;28;20234;-69
2023/08/26 04:35:41;;;;;;;7.37;2.23;;;20.00;62.00;;;;;;5070132;28;20219;-71
2023/08/26 04:38:08;;;;;;;6.03;1.60;;;19.90;62.70;;;;;;5070181;28;20245;-69
2023/08/26 04:40:36;;;;;;;2.03;1.30;;;19.70;63.30;;;;;;5070520;28;20203;-70
2023/08/26 04:43:03;;;;;;;4.17;1.30;;;19.60;64.00;;;;;;5069802;28;20188;-71
2023/08/26 04:45:31;;;;;;;4.23;1.50;;;19.80;63.80;;;;;;5070085;28;20302;-70
2023/08/26 04:47:58;;;;;;;4.97;1.60;;;20.60;62.50;;;;;;5069494;28;20194;-69
2023/08/26 04:50:26;;;;;;;3.70;1.20;;;21.80;58.40;;;;;;5067808;28;20274;-71
2023/08/26 04:52:53;;;;;;;4.30;1.40;;;22.50;55.60;;;;;;5068395;28;20184;-68
2023/08/26 04:55:20;;;;;;;6.87;1.10;;;23.00;53.70;;;;;;5075788;28;20584;-69
2023/08/26 04:57:48;;;;;;;4.23;1.13;;;23.60;52.60;;;;;;5069157;28;20578;-67
2023/08/26 05:00:16;;;;;;;5.80;1.50;;;24.10;50.80;;;;;;5069542;28;20179;-69
2023/08/26 05:02:44;;;;;;;6.17;1.37;;;24.10;50.00;;;;;;5069244;28;20210;-69
2023/08/26 05:05:11;;;;;;;4.63;1.60;;;23.10;52.50;;;;;;5070249;28;20179;-68
2023/08/26 05:07:39;;;;;;;3.63;1.20;;;21.90;55.60;;;;;;5070293;28;20258;-68
2023/08/26 05:10:07;;;;;;;3.07;1.30;;;21.70;56.40;;;;;;5072764;28;20187;-68
2023/08/26 05:12:34;;;;;;;4.20;1.60;;;21.30;57.60;;;;;;5073123;28;20191;-71
2023/08/26 05:15:05;;;;;;;4.00;1.57;;;21.80;56.60;;;;;;5073451;28;20585;-69
2023/08/26 05:17:33;;;;;;;6.87;1.43;;;22.80;54.50;;;;;;5072481;28;20699;-67
2023/08/26 05:20:00;;;;;;;2.90;1.67;;;23.10;52.60;;;;;;5071238;28;20634;-69
2023/08/26 05:22:28;;;;;;;4.90;1.37;;;23.30;50.50;;;;;;5073971;28;20262;-67
2023/08/26 05:24:55;;;;;;;3.13;1.50;;;23.50;48.80;;;;;;5073281;28;20277;-67
2023/08/26 05:27:23;;;;;;;3.57;1.10;;;23.60;51.10;;;;;;5073735;28;20206;-65
2023/08/26 05:29:50;;;;;;;2.43;1.30;;;24.40;48.80;;;;;;5074506;28;20171;-72
2023/08/26 05:32:19;;;;;;;8.40;1.70;;;24.40;48.80;;;;;;5069644;28;20230;-74
2023/08/26 05:34:46;;;;;;;5.40;1.30;;;24.80;48.00;;;;;;5074068;28;20217;-67
2023/08/26 05:37:13;;;;;;;6.97;2.00;;;24.30;49.60;;;;;;5074817;28;20642;-72
2023/08/26 05:39:41;;;;;;;3.87;1.27;;;23.50;51.60;;;;;;5074887;28;20179;-73
2023/08/26 05:42:08;;;;;;;6.83;1.27;;;22.80;53.30;;;;;;5073872;28;20720;-73
2023/08/26 05:44:35;;;;;;;4.67;1.37;;;22.70;52.90;;;;;;5071879;28;20176;-75
2023/08/26 05:47:03;;;;;;;4.73;1.40;;;23.30;52.20;;;;;;5074766;28;20626;-73
2023/08/26 05:49:30;;;;;;;5.93;1.33;;;23.80;49.80;;;;;;5072231;28;20191;-70
2023/08/26 05:51:57;;;;;;;4.80;1.40;;;24.00;48.70;;;;;;5073366;28;20640;-73
2023/08/26 05:54:25;;;;;;;3.57;1.30;;;23.80;49.20;;;;;;5072820;28;20238;-72
2023/08/26 05:56:52;;;;;;;5.00;1.63;;;22.70;53.40;;;;;;5072134;28;20178;-71
2023/08/26 05:59:20;;;;;;;4.43;1.10;;;22.90;52.00;;;;;;5073051;28;20183;-72
2023/08/26 06:01:47;;;;;;;3.77;1.37;;;22.10;54.30;;;;;;5073177;28;20190;-69
2023/08/26 06:04:14;;;;;;;3.93;1.43;;;22.00;54.30;;;;;;5071633;28;20187;-70
2023/08/26 06:06:41;;;;;;;7.50;1.33;;;22.50;52.40;;;;;;5070799;28;20203;-70
2023/08/26 06:09:09;;;;;;;6.67;1.50;;;21.60;53.60;;;;;;5072652;28;20253;-68
2023/08/26 06:11:38;;;;;;;2.90;1.30;;;21.30;54.70;;;;;;5072039;28;20256;-66
2023/08/26 06:14:05;;;;;;;7.73;1.40;;;21.80;54.20;;;;;;5072563;28;20222;-68
2023/08/26 06:16:32;;;;;;;3.50;1.20;;;22.40;53.30;;;;;;5072170;28;20188;-67
2023/08/26 06:19:00;;;;;;;5.00;1.43;;;22.30;53.20;;;;;;5072355;28;20182;-67
2023/08/26 06:21:27;;;;;;;4.93;1.33;;;22.10;53.50;;;;;;5071236;28;20175;-66
2023/08/26 06:23:54;;;;;;;6.50;1.47;;;21.40;55.80;;;;;;5072769;28;20267;-65
2023/08/26 06:26:22;;;;;;;3.33;1.37;;;20.50;59.20;;;;;;5072215;28;20183;-67
2023/08/26 06:28:49;;;;;;;4.73;1.53;;;20.90;58.80;;;;;;5072589;28;20178;-67
2023/08/26 06:31:16;;;;;;;3.00;1.23;;;21.70;56.20;;;;;;5067648;28;20238;-67
2023/08/26 06:33:44;;;;;;;4.50;1.50;;;22.50;53.60;;;;;;5071981;28;20182;-70
2023/08/26 06:36:11;;;;;;;6.07;1.77;;;22.30;53.30;;;;;;5072720;28;20187;-68
2023/08/26 06:38:39;;;;;;;6.47;1.60;;;22.00;55.30;;;;;;5070732;28;20591;-71
2023/08/26 06:41:06;;;;;;;3.00;1.30;;;22.00;55.80;;;;;;5071861;28;20194;-69
2023/08/26 06:43:34;;;;;;;6.63;1.30;;;21.40;56.70;;;;;;5071527;28;20254;-72
2023/08/26 06:46:01;;;;;;;5.87;1.60;;;20.80;59.10;;;;;;5072053;28;20297;-66
2023/08/26 06:48:28;;;;;;;3.13;1.30;;;20.10;60.70;;;;;;5071075;28;20175;-69
2023/08/26 06:50:56;;;;;;;3.97;1.33;;;19.80;62.70;;;;;;5070639;28;20565;-67
2023/08/26 06:53:23;;;;;;;6.87;1.87;;;19.50;62.70;;;;;;5070299;28;20183;-67
2023/08/26 06:55:52;;;;;;;7.53;1.77;;;19.30;63.70;;;;;;5070357;28;20211;-67
2023/08/26 06:58:21;;;;;;;3.70;1.40;;;19.30;64.00;;;;;;5070896;28;20575;-66
2023/08/26 07:00:48;;;;;;;8.30;2.30;;;19.20;64.80;;;;;;5070114;28;20198;-67
2023/08/26 07:03:16;;;;;;;7.97;1.90;;;18.90;65.90;;;;;;5072365;28;20237;-68
2023/08/26 07:05:47;;;;;;;5.67;1.93;;;18.70;66.70;;;;;;5071462;28;20275;-66
2023/08/26 07:08:15;;;;;;;4.97;1.80;;;18.30;67.70;;;;;;5071956;28;20203;-66
2023/08/26 07:10:44;;;;;;;4.23;1.97;;;18.30;68.20;;;;;;5072235;28;20211;-67
2023/08/26 07:13:13;;;;;;;3.30;2.00;;;18.20;68.30;;;;;;5071432;28;20637;-66
2023/08/26 07:15:40;;;;;;;4.80;1.83;;;18.00;69.70;;;;;;5072128;28;20236;-68
2023/08/26 07:18:08;;;;;;;8.73;2.23;;;18.10;69.80;;;;;;5070857;28;20240;-67
2023/08/26 07:20:35;;;;;;;4.03;1.90;;;18.00;69.60;;;;;;5072077;28;20186;-67
2023/08/26 07:23:02;;;;;;;4.90;1.83;;;17.90;70.20;;;;;;5071748;28;20193;-67
2023/08/26 07:25:30;;;;;;;6.90;1.83;;;17.80;70.60;;;;;;5071958;28;20619;-67
2023/08/26 07:27:57;;;;;;;3.43;1.70;;;17.60;70.90;;;;;;5071258;28;20269;-68
2023/08/26 07:30:26;;;;;;;3.93;1.80;;;17.60;71.00;;;;;;5070389;28;20203;-67
2023/08/26 07:32:54;;;;;;;3.50;1.77;;;17.60;71.40;;;;;;5071441;28;20646;-66
2023/08/26 07:35:21;;;;;;;8.93;2.13;;;17.50;71.30;;;;;;5070037;28;20704;-68
2023/08/26 07:37:49;;;;;;;8.77;2.07;;;17.50;71.80;;;;;;5070251;28;20660;-67
2023/08/26 07:40:17;;;;;;;3.83;1.77;;;17.50;71.70;;;;;;5071480;28;20190;-65
2023/08/26 07:42:44;;;;;;;3.87;1.90;;;17.30;72.00;;;;;;5070644;28;20270;-67
2023/08/26 07:45:13;;;;;;;6.93;2.10;;;17.20;72.20;;;;;;5069970;28;20375;-68
2023/08/26 07:47:42;;;;;;;5.93;2.00;;;17.20;72.70;;;;;;5070361;28;20215;-67
2023/08/26 07:50:09;;;;;;;6.97;2.13;;;17.20;72.90;;;;;;5071446;28;20205;-69
2023/08/26 07:52:38;;;;;;;7.77;2.03;;;17.20;72.70;;;;;;5071807;28;20630;-70
2023/08/26 07:55:06;;;;;;;5.23;1.87;;;17.10;73.30;;;;;;5070994;28;20218;-67
2023/08/26 07:57:33;;;;;;;5.03;1.87;;;17.10;73.50;;;;;;5070865;28;20175;-68
2023/08/26 08:00:02;;;;;;;8.43;2.17;;;17.00;73.60;;;;;;5069320;28;20296;-68
2023/08/26 08:02:31;;;;;;;4.80;1.67;;;16.90;74.00;;;;;;5071295;28;20681;-67
2023/08/26 08:04:58;;;;;;;5.10;1.60;;;17.00;74.20;;;;;;5068492;28;20190;-66
2023/08/26 08:07:27;;;;;;;6.57;2.17;;;16.90;74.10;;;;;;5071922;28;20192;-67
2023/08/26 08:09:55;;;;;;;7.13;1.80;;;16.80;74.40;;;;;;5073925;28;20190;-73
2023/08/26 08:12:23;;;;;;;4.40;1.87;;;16.70;74.60;;;;;;5075141;28;20190;-73
2023/08/26 08:14:50;;;;;;;5.23;2.10;;;16.60;74.90;;;;;;5072334;28;20226;-73
2023/08/26 08:17:18;;;;;;;5.03;2.10;;;16.50;74.90;;;;;;5069326;28;20269;-75
2023/08/26 08:19:45;;;;;;;3.50;2.10;;;16.50;75.50;;;;;;5070182;28;20194;-74
2023/08/26 08:22:16;;;;;;;7.57;2.30;;;16.40;75.70;;;;;;5072321;28;20260;-73
2023/08/26 08:24:44;;;;;;;11.80;2.50;;;16.30;75.70;;;;;;5073108;28;20602;-73
2023/08/26 08:27:11;;;;;;;7.47;2.73;;;16.30;76.10;;;;;;5071466;28;20183;-73
2023/08/26 08:29:39;;;;;;;6.57;2.60;;;16.30;76.10;;;;;;5070500;28;20178;-75
2023/08/26 08:32:06;;;;;;;9.07;2.47;;;16.30;76.10;;;;;;5068664;28;20237;-74
2023/08/26 08:34:34;;;;;;;6.83;2.70;;;16.20;76.40;;;;;;5071388;28;20219;-73
2023/08/26 08:37:02;;;;;;;5.87;2.77;;;16.20;76.60;;;;;;5070412;28;20536;-74
2023/08/26 08:39:30;;;;;;;8.77;2.53;;;16.20;76.90;;;;;;5073757;28;20193;-75
2023/08/26 08:42:00;;;;;;;4.13;2.27;;;16.10;76.80;;;;;;5070564;28;20186;-74
2023/08/26 08:44:30;;;;;;;9.00;2.53;;;16.00;76.90;;;;;;5071983;28;20186;-73
2023/08/26 08:46:58;;;;;;;8.97;2.67;;;16.00;77.10;;;;;;5074778;28;20619;-74
2023/08/26 08:49:25;;;;;;;8.07;2.77;;;16.00;77.30;;;;;;5074704;28;20222;-72
2023/08/26 08:51:53;;;;;;;4.30;2.20;;;15.90;77.40;;;;;;5070061;28;20270;-72
2023/08/26 08:54:21;;;;;;;8.60;3.07;;;15.90;77.60;;;;;;5074981;28;20222;-74
2023/08/26 08:56:48;;;;;;;8.07;3.00;;;15.80;77.70;;;;;;5074569;28;20185;-72
2023/08/26 08:59:17;;;;;;;6.10;2.70;;;15.90;77.70;;;;;;5074729;28;20194;-72
2023/08/26 09:01:45;;;;;;;7.13;3.60;;;15.80;77.90;;;;;;5071945;28;20178;-72
2023/08/26 09:04:12;;;;;;;4.53;3.03;;;15.80;78.00;;;;;;5073203;28;20198;-73
2023/08/26 09:06:40;;;;;;;5.50;3.07;;;15.70;78.20;;;;;;5073794;28;20656;-74
2023/08/26 09:09:10;;;;;;;8.83;3.63;;;15.70;78.30;;;;;;5071921;28;20193;-72
2023/08/26 09:11:41;;;;;;;8.23;3.63;;;15.70;78.50;;;;;;5073397;28;20289;-66
2023/08/26 09:14:09;;;;;;;7.17;3.53;;;15.70;78.70;;;;;;5075389;28;20658;-68
2023/08/26 09:16:38;;;;;;;8.07;4.23;;;15.60;78.80;;;;;;5070260;28;20257;-69
2023/08/26 09:19:12;;;;;;;7.47;4.13;;;15.60;79.20;;;;;;5070856;28;20189;-71
2023/08/26 09:21:43;;;;;;;7.00;4.17;;;15.50;79.40;;;;;;5069884;28;20754;-74
2023/08/26 09:24:15;;;;;;;7.63;3.90;;;15.50;79.70;;;;;;5074142;28;20278;-68
2023/08/26 09:26:44;;;;;;;8.53;4.73;;;15.50;79.80;;;;;;5070424;28;20187;-73
2023/08/26 09:29:18;;;;;;;11.33;4.60;;;15.50;80.00;;;;;;5074024;28;20215;-72
2023/08/26 09:31:50;;;;;;;10.13;4.73;;;15.40;80.20;;;;;;5072478;28;20241;-70
2023/08/26 09:34:28;;;;;;;9.57;5.37;;;15.40;80.30;;;;;;5073092;28;20211;-68
2023/08/26 09:36:55;;;;;;;9.60;5.40;;;15.30;80.30;;;;;;5073377;28;20198;-72
2023/08/26 09:39:23;;;;;;;8.83;4.73;;;15.30;80.80;;;;;;5073070;28;20182;-72
2023/08/26 09:41:51;;;;;;;11.60;5.30;;;15.30;80.80;;;;;;5074137;28;20261;-74
2023/08/26 09:44:21;;;;;;;12.30;5.63;;;15.30;80.70;;;;;;5073974;28;20178;-73
2023/08/26 09:46:49;;;;;;;12.47;5.30;;;15.30;81.00;;;;;;5073323;28;20848;-71
2023/08/26 09:49:18;;;;;;;9.50;5.30;;;15.20;80.90;;;;;;5073955;28;20652;-73
2023/08/26 09:51:50;;;;;;;11.23;5.33;;;15.20;81.10;;;;;;5074727;28;20175;-74
2023/08/26 09:54:19;;;;;;;11.07;5.67;;;15.20;81.10;;;;;;5072439;28;20273;-71
2023/08/26 09:56:47;;;;;;;13.13;6.37;;;15.20;81.20;;;;;;5071858;28;20282;-72
2023/08/26 09:59:15;;;;;;;9.57;5.73;;;15.10;81.30;;;;;;5073850;28;20187;-74
2023/08/26 10:01:43;;;;;;;9.90;5.70;;;15.10;81.70;;;;;;5069182;28;20228;-75
2023/08/26 10:04:13;;;;;;;13.50;6.13;;;15.00;81.70;;;;;;5071329;28;20184;-72
2023/08/26 10:06:43;;;;;;;7.87;5.43;;;15.00;81.80;;;;;;5072933;28;20171;-73
2023/08/26 10:09:23;;;;;;;8.23;5.67;;;15.00;82.00;;;;;;5071340;28;20253;-74
2023/08/26 10:11:54;;;;;;;13.50;5.23;;;14.90;82.00;;;;;;5069506;28;20182;-70
2023/08/26 10:14:24;;;;;;;10.87;4.50;;;14.90;82.00;;;;;;5071447;28;20210;-73
2023/08/26 10:16:54;;;;;;;11.60;6.10;;;14.90;82.20;;;;;;5071986;28;20179;-72
2023/08/26 10:19:22;;;;;;;12.80;6.70;;;14.90;82.30;;;;;;5072925;28;20190;-72
2023/08/26 10:21:51;;;;;;;13.57;7.07;;;14.80;82.30;;;;;;5072502;28;20175;-72
2023/08/26 10:24:19;;;;;;;12.53;7.07;;;14.90;82.60;;;;;;5069867;28;20179;-72
2023/08/26 10:26:47;;;;;;;16.53;7.20;;;14.80;82.50;;;;;;5068796;28;20180;-74
2023/08/26 10:29:16;;;;;;;12.93;6.90;;;14.80;82.50;;;;;;5072883;28;20177;-73
2023/08/26 10:31:46;;;;;;;15.83;8.50;;;14.80;82.60;;;;;;5070730;28;20233;-73
2023/08/26 10:34:15;;;;;;;12.67;8.23;;;14.70;82.70;;;;;;5067945;28;20206;-69
2023/08/26 10:36:47;;;;;;;13.73;8.70;;;14.70;82.90;;;;;;5072147;28;20178;-74
2023/08/26 10:39:18;;;;;;;18.63;8.97;;;14.60;83.10;;;;;;5072632;28;20231;-71
2023/08/26 10:42:12;;;;;;;15.03;8.60;;;14.60;83.10;;;;;;5069826;28;20606;-70
2023/08/26 10:44:48;;;;;;;15.90;9.00;;;14.50;83.30;;;;;;5071888;28;20219;-72
2023/08/26 10:47:38;;;;;;;12.70;9.23;;;14.50;83.60;;;;;;5071145;28;20578;-74
2023/08/26 10:50:22;;;;;;;17.90;9.30;;;14.50;83.60;;;;;;5070475;28;20178;-71
2023/08/26 10:53:00;;;;;;;15.23;8.70;;;14.40;83.50;;;;;;5069877;28;20175;-72
2023/08/26 10:55:32;;;;;;;13.83;8.97;;;14.40;83.70;;;;;;5071472;28;20227;-71
2023/08/26 10:58:11;;;;;;;14.13;10.07;;;14.40;83.80;;;;;;5070663;28;20175;-71
2023/08/26 11:00:41;;;;;;;16.13;10.93;;;14.40;83.90;;;;;;5072727;28;20183;-71
2023/08/26 11:03:10;;;;;;;20.23;11.77;;;14.30;83.80;;;;;;5069926;28;20184;-73
2023/08/26 11:05:39;;;;;;;13.80;11.43;;;14.30;84.30;;;;;;5071260;28;20199;-69
2023/08/26 11:08:07;;;;;;;16.20;10.60;;;14.30;84.10;;;;;;5071324;28;20211;-74
2023/08/26 11:10:39;;;;;;;18.87;11.40;;;14.20;84.00;;;;;;5071394;28;20279;-72
2023/08/26 11:13:10;;;;;;;19.20;12.03;;;14.20;84.40;;;;;;5071317;28;20171;-72
2023/08/26 11:15:44;;;;;;;20.27;13.27;;;14.20;84.50;;;;;;5071801;28;20673;-70
2023/08/26 11:18:12;;;;;;;21.93;14.07;;;14.20;84.80;;;;;;5069298;28;20199;-68
2023/08/26 11:20:40;;;;;;;22.77;14.23;;;14.30;84.60;;;;;;5070157;28;20206;-70
2023/08/26 11:23:07;;;;;;;21.33;13.87;;;14.30;84.70;;;;;;5071391;28;20190;-66
2023/08/26 11:25:35;;;;;;;20.03;13.57;;;14.30;84.60;;;;;;5071723;28;20611;-67
2023/08/26 11:28:08;;;;;;;22.57;13.83;;;14.30;84.80;;;;;;5071267;28;20175;-66
2023/08/26 11:30:41;;;;;;;22.73;14.17;;;14.30;84.80;;;;;;5070807;28;20252;-66
2023/08/26 11:33:17;;;;;;;22.93;14.73;;;14.30;84.70;;;;;;5069310;28;20236;-67
2023/08/26 11:35:49;;;;;;;18.43;13.70;;;14.30;84.40;;;;;;5066663;28;20230;-66
2023/08/26 11:38:22;;;;;;;23.77;13.67;;;14.20;84.80;;;;;;5069627;28;20328;-68
2023/08/26 11:40:49;;;;;;;17.90;14.10;;;14.20;84.90;;;;;;5069031;28;20227;-67
2023/08/26 11:43:17;;;;;;;19.90;13.87;;;14.20;84.80;;;;;;5069445;28;20186;-67
2023/08/26 11:45:46;;;;;;;24.93;13.87;;;14.20;84.90;;;;;;5068897;28;20187;-69
2023/08/26 11:48:14;;;;;;;22.53;14.63;;;14.20;84.90;;;;;;5067830;28;20182;-67
2023/08/26 11:50:42;;;;;;;15.83;13.10;;;14.10;84.90;;;;;;5071246;28;20203;-70
2023/08/26 11:53:10;;;;;;;22.97;13.90;;;14.00;85.00;;;;;;5070758;28;20658;-71
2023/08/26 11:55:39;;;;;;;25.57;14.80;;;14.00;85.00;;;;;;5071257;28;20736;-68
2023/08/26 11:58:07;;;;;;;20.77;14.90;;;14.00;85.40;;;;;;5069703;28;20233;-67
2023/08/26 12:00:37;;;;;;;20.03;14.77;;;13.90;85.20;;;;;;5070262;28;20278;-66
2023/08/26 12:03:06;;;;;;;21.17;14.77;;;13.90;85.50;;;;;;5068522;28;20635;-67
2023/08/26 12:05:55;;;;;;;20.97;14.40;;;13.80;85.60;;;;;;5071749;28;20236;-66
2023/08/26 12:08:23;;;;;;;20.37;13.93;;;13.80;85.90;;;;;;5069083;28;20270;-70
2023/08/26 12:10:53;;;;;;;20.10;14.03;;;13.80;85.90;;;;;;5069514;28;20184;-66
2023/08/26 12:13:20;;;;;;;22.00;14.00;;;13.80;86.00;;;;;;5070789;28;20642;-66
2023/08/26 12:15:50;;;;;;;21.47;14.70;;;13.80;86.20;;;;;;5068749;28;20226;-69
2023/08/26 12:18:20;;;;;;;21.03;14.53;;;13.80;86.20;;;;;;5067631;28;20534;-67
2023/08/26 12:20:49;;;;;;;20.07;14.93;;;13.80;86.30;;;;;;5074650;28;20207;-65
2023/08/26 12:23:21;;;;;;;20.57;14.90;;;13.80;86.60;;;;;;5074065;28;20190;-68
2023/08/26 12:25:48;;;;;;;17.97;14.03;;;13.80;86.30;;;;;;5073357;28;20232;-66
2023/08/26 12:28:18;;;;;;;25.00;15.20;;;13.80;86.80;;;;;;5073443;28;20187;-66
2023/08/26 12:30:47;;;;;;;19.27;14.90;;;13.70;86.50;;;;;;5073653;28;20184;-68
2023/08/26 12:33:16;;;;;;;23.00;15.67;;;13.70;86.50;;;;;;5071047;28;20227;-66
2023/08/26 12:35:45;;;;;;;24.67;15.43;;;13.60;86.50;;;;;;5073337;28;20215;-67
2023/08/26 12:38:13;;;;;;;22.83;16.10;;;13.60;87.00;;;;;;5074389;28;20183;-67
2023/08/26 12:40:42;;;;;;;23.03;17.53;;;13.50;86.90;;;;;;5074929;28;20668;-66
2023/08/26 12:43:09;;;;;;;24.73;16.43;;;13.50;87.00;;;;;;5073525;28;20262;-67
2023/08/26 12:45:36;;;;;;;27.40;16.87;;;13.50;87.10;;;;;;5071166;28;20182;-68
2023/08/26 12:48:04;;;;;;;23.00;16.40;;;13.50;87.60;;;;;;5074611;28;20180;-66
2023/08/26 12:50:32;;;;;;;22.00;17.97;;;13.50;87.50;;;;;;5070603;28;20194;-67
2023/08/26 12:53:00;;;;;;;26.83;18.13;;;13.60;87.30;;;;;;5074461;28;20270;-66